Time;durP1;ratioP1;P1;durP2;ratioP2;P2;SDS_P1;SDS_P2;PMS_P1;PMS_P2;Temp;Humidity;BMP_temperature;BMP_pressure;BME280_temperature;BME280_humidity;BME280_pressure;Samples;Min_cycle;Max_cycle;Signal;HPM_P1;HPM_P2
2023/09/11 00:00:12;;;;;;;15.60;13.60;;;;;;;13.99;78.60;99884.73;217659;1260;142032;-81
2023/09/11 00:05:35;;;;;;;16.80;12.70;;;;;;;13.92;79.08;99887.40;218053;1257;247691;-80
2023/09/11 00:10:40;;;;;;;14.80;13.30;;;;;;;13.94;79.19;99890.16;217609;1260;140654;-80
2023/09/11 00:15:44;;;;;;;12.50;11.30;;;;;;;13.97;78.93;99880.27;218141;1257;140598;-77
2023/09/11 00:20:48;;;;;;;16.80;13.00;;;;;;;13.86;78.53;99872.12;217547;1258;142428;-83
2023/09/11 00:25:51;;;;;;;13.90;12.50;;;;;;;13.77;78.86;99871.13;217546;1257;141513;-83
2023/09/11 00:30:59;;;;;;;16.20;12.30;;;;;;;13.75;78.91;99872.86;217651;1256;140806;-82
2023/09/11 00:36:02;;;;;;;19.40;11.40;;;;;;;13.65;79.04;99868.52;217736;1260;141052;-81
2023/09/11 00:41:06;;;;;;;18.00;12.70;;;;;;;13.56;79.09;99869.02;217849;1260;140604;-74
2023/09/11 00:46:10;;;;;;;18.50;13.70;;;;;;;13.57;79.61;99865.82;218184;1260;140931;-76
2023/09/11 00:51:13;;;;;;;14.60;13.10;;;;;;;13.60;79.66;99866.23;218805;1256;142354;-75
2023/09/11 00:56:17;;;;;;;13.20;11.40;;;;;;;13.61;79.29;99862.15;219870;1256;141025;-74
2023/09/11 01:01:23;;;;;;;12.20;10.60;;;;;;;13.53;79.39;99857.99;219151;1257;140438;-74
2023/09/11 01:06:26;;;;;;;17.20;13.10;;;;;;;13.46;79.78;99855.77;217790;1257;141281;-73
2023/09/11 01:11:30;;;;;;;15.20;12.60;;;;;;;13.41;80.06;99854.13;217682;1256;141318;-83
2023/09/11 01:16:45;;;;;;;15.00;13.50;;;;;;;13.34;79.79;99858.01;217859;1260;140633;-77
2023/09/11 01:22:09;;;;;;;13.40;11.60;;;;;;;13.30;80.18;99855.69;218481;1256;140847;-75
2023/09/11 01:27:19;;;;;;;13.80;11.50;;;;;;;13.25;80.15;99854.88;218923;1256;140770;-76
2023/09/11 01:32:25;;;;;;;15.60;13.90;;;;;;;13.20;80.31;99842.45;218633;1256;140406;-79
2023/09/11 01:37:31;;;;;;;16.40;14.70;;;;;;;13.19;80.59;99847.30;218241;1257;140289;-79
2023/09/11 01:42:46;;;;;;;16.60;13.80;;;;;;;13.21;80.66;99849.85;217383;1258;141820;-75
2023/09/11 01:47:52;;;;;;;18.20;15.90;;;;;;;13.14;80.57;99843.45;217544;1256;141811;-83
2023/09/11 01:52:55;;;;;;;21.60;15.50;;;;;;;13.09;80.45;99845.89;217485;1256;141379;-79
2023/09/11 01:57:58;;;;;;;18.10;15.20;;;;;;;13.07;80.96;99843.72;218086;1256;140394;-82
2023/09/11 02:03:01;;;;;;;14.70;12.70;;;;;;;13.05;80.65;99843.53;217737;1257;140278;-76
2023/09/11 02:08:05;;;;;;;17.90;14.40;;;;;;;13.00;80.80;99845.12;217802;1257;141604;-76
2023/09/11 02:13:08;;;;;;;15.30;13.70;;;;;;;12.97;80.69;99841.34;217469;1257;141459;-79
2023/09/11 02:18:11;;;;;;;18.70;15.50;;;;;;;12.90;80.97;99838.83;217378;1257;141849;-73
2023/09/11 02:23:16;;;;;;;16.60;13.20;;;;;;;12.83;81.07;99839.42;218535;1256;140688;-81
2023/09/11 02:28:19;;;;;;;20.80;14.00;;;;;;;12.80;81.35;99838.54;217620;1257;140676;-77
2023/09/11 02:33:24;;;;;;;17.60;11.70;;;;;;;12.80;81.45;99835.61;219601;1256;141048;-79
2023/09/11 02:38:28;;;;;;;17.30;12.50;;;;;;;12.78;81.54;99837.02;217781;1257;140436;-76
2023/09/11 02:43:32;;;;;;;20.40;12.10;;;;;;;12.77;81.29;99835.67;218988;1256;141976;-79
2023/09/11 02:48:36;;;;;;;14.80;13.20;;;;;;;12.74;81.28;99833.48;220411;1256;151946;-77
2023/09/11 02:53:40;;;;;;;15.60;12.40;;;;;;;12.73;81.22;99831.21;220230;1256;141417;-79
2023/09/11 02:58:42;;;;;;;15.40;13.10;;;;;;;12.71;81.05;99828.42;220471;1256;140634;-78
2023/09/11 03:03:46;;;;;;;16.30;13.00;;;;;;;12.69;81.34;99827.85;218730;1256;140498;-78
2023/09/11 03:08:49;;;;;;;16.00;11.50;;;;;;;12.67;81.27;99822.63;218533;1256;141217;-74
2023/09/11 03:13:53;;;;;;;18.10;13.60;;;;;;;12.63;81.53;99821.88;217722;1257;140440;-78
2023/09/11 03:18:56;;;;;;;16.00;12.00;;;;;;;12.68;81.85;99823.45;219290;1256;140260;-78
2023/09/11 03:23:59;;;;;;;17.30;13.00;;;;;;;12.63;81.62;99820.53;218149;1260;141260;-78
2023/09/11 03:29:02;;;;;;;15.30;13.00;;;;;;;12.60;81.80;99820.11;217962;1260;140769;-77
2023/09/11 03:34:06;;;;;;;12.60;11.00;;;;;;;12.58;81.65;99819.66;218662;1257;140860;-77
2023/09/11 03:39:09;;;;;;;14.90;12.80;;;;;;;12.49;81.70;99818.64;217947;1256;140293;-77
2023/09/11 03:44:12;;;;;;;12.60;11.00;;;;;;;12.46;81.88;99819.29;218530;1256;142218;-78
2023/09/11 03:49:16;;;;;;;15.50;12.90;;;;;;;12.46;81.95;99814.03;218067;1256;140528;-80
2023/09/11 03:54:20;;;;;;;13.60;12.20;;;;;;;12.44;81.64;99813.59;217733;1257;141057;-74
2023/09/11 03:59:23;;;;;;;18.40;12.90;;;;;;;12.42;81.69;99813.02;217751;1257;140737;-79
2023/09/11 04:04:25;;;;;;;13.90;11.50;;;;;;;12.36;81.76;99810.66;217490;1257;140312;-77
2023/09/11 04:09:30;;;;;;;13.60;12.30;;;;;;;12.26;81.82;99804.69;218185;1256;140769;-81
2023/09/11 04:14:37;;;;;;;13.90;12.50;;;;;;;12.20;81.60;99802.48;218143;1257;140337;-77
2023/09/11 04:19:41;;;;;;;15.50;13.20;;;;;;;12.22;82.11;99801.38;218416;1258;140617;-83
2023/09/11 04:24:43;;;;;;;16.00;11.90;;;;;;;12.24;81.92;99802.31;218698;1256;142502;-77
2023/09/11 04:29:48;;;;;;;15.90;13.70;;;;;;;12.24;82.02;99804.82;218420;1257;140756;-74
2023/09/11 04:34:51;;;;;;;13.60;11.70;;;;;;;12.27;81.99;99803.27;219212;1256;142487;-76
2023/09/11 04:39:54;;;;;;;14.80;12.30;;;;;;;12.27;82.16;99798.13;219267;1256;141498;-76
2023/09/11 04:44:59;;;;;;;19.10;13.00;;;;;;;12.38;82.68;99788.04;220313;1257;140987;-77
2023/09/11 04:50:01;;;;;;;22.20;13.00;;;;;;;12.49;82.52;99788.52;220480;1256;140725;-77
2023/09/11 04:55:05;;;;;;;16.10;11.90;;;;;;;12.61;82.69;99787.83;220192;1256;141798;-76
2023/09/11 05:00:13;;;;;;;15.50;11.90;;;;;;;12.76;82.71;99788.05;220203;1256;140978;-75
2023/09/11 05:05:17;;;;;;;27.20;14.60;;;;;;;12.88;82.90;99792.14;220400;1256;141476;-75
2023/09/11 05:10:21;;;;;;;21.40;15.00;;;;;;;13.06;83.07;99792.86;218160;1256;140658;-71
2023/09/11 05:15:25;;;;;;;29.00;14.80;;;;;;;13.26;83.31;99798.09;217891;1257;141096;-76
2023/09/11 05:20:30;;;;;;;17.50;13.20;;;;;;;13.45;83.58;99797.08;218565;1256;141428;-73
2023/09/11 05:25:34;;;;;;;19.40;15.10;;;;;;;13.67;84.28;99796.76;217409;1260;140621;-69
2023/09/11 05:30:37;;;;;;;17.40;15.00;;;;;;;13.87;84.57;99793.98;218541;1256;141872;-73
2023/09/11 05:35:43;;;;;;;16.50;14.60;;;;;;;14.07;84.97;99794.70;217475;1257;141094;-73
2023/09/11 05:40:46;;;;;;;18.70;16.30;;;;;;;14.28;85.54;99794.27;217515;1256;140623;-72
2023/09/11 05:45:48;;;;;;;23.10;16.10;;;;;;;14.47;85.85;99798.76;218250;1256;140285;-72
2023/09/11 06:02:41;;;;;;;21.60;16.30;;;;;;;15.12;86.90;99785.95;213963;1295;682341;-72
2023/09/11 06:16:23;;;;;;;20.10;18.00;;;;;;;15.64;87.40;99784.61;213871;1293;682838;-74
2023/09/11 06:21:26;;;;;;;22.60;17.80;;;;;;;15.85;87.68;99781.14;215977;1271;140331;-74
2023/09/11 06:26:33;;;;;;;15.70;13.70;;;;;;;16.08;87.80;99781.79;216249;1266;350528;-73
2023/09/11 06:31:37;;;;;;;18.50;15.40;;;;;;;16.33;88.07;99779.17;216633;1266;139000;-73
2023/09/11 06:36:40;;;;;;;23.40;18.40;;;;;;;16.60;87.85;99781.83;217016;1266;140095;-74
2023/09/11 06:41:42;;;;;;;18.90;17.10;;;;;;;16.93;87.66;99779.00;217405;1269;140097;-73
2023/09/11 06:47:25;;;;;;;19.50;17.00;;;;;;;17.36;87.25;99780.79;214087;1292;683831;-73
2023/09/11 06:52:28;;;;;;;17.40;15.20;;;;;;;17.73;86.95;99788.73;216168;1269;139936;-73
2023/09/11 06:57:33;;;;;;;20.70;15.90;;;;;;;18.19;86.62;99789.38;218262;1267;752414;-71
2023/09/11 07:02:35;;;;;;;18.50;15.30;;;;;;;18.93;86.10;99786.65;217018;1267;140767;-71
2023/09/11 07:07:39;;;;;;;15.60;14.10;;;;;;;19.96;84.91;99792.85;216361;1267;139103;-71
2023/09/11 07:12:42;;;;;;;15.90;14.40;;;;;;;21.20;83.85;99792.20;217437;1267;139818;-71
2023/09/11 07:22:52;;;;;;;18.60;14.40;;;;;;;24.02;79.46;99791.91;214708;1295;682627;-71
2023/09/11 07:27:55;;;;;;;13.80;12.30;;;;;;;25.27;76.92;99792.59;215894;1275;138722;-72
2023/09/11 07:32:57;;;;;;;14.70;13.20;;;;;;;26.00;74.65;99796.73;215912;1267;366908;-71
2023/09/11 07:38:00;;;;;;;12.70;11.50;;;;;;;26.60;72.86;99800.10;216321;1269;139039;-70
2023/09/11 07:43:04;;;;;;;14.20;12.40;;;;;;;26.97;70.44;99796.58;216533;1268;139002;-71
2023/09/11 07:48:07;;;;;;;12.80;11.70;;;;;;;27.34;68.75;99787.17;218394;1259;138736;-73
2023/09/11 07:53:10;;;;;;;13.10;11.80;;;;;;;27.74;67.76;99783.22;219483;1259;139398;-73
2023/09/11 07:58:13;;;;;;;11.20;10.10;;;;;;;28.04;66.50;99782.58;217365;1259;139474;-72
2023/09/11 08:03:16;;;;;;;10.00;9.20;;;;;;;28.26;65.73;99781.45;217298;1260;139591;-72
2023/09/11 08:08:20;;;;;;;12.50;10.20;;;;;;;28.36;64.32;99780.70;217156;1262;139340;-73
2023/09/11 08:13:23;;;;;;;14.10;9.20;;;;;;;28.35;63.45;99782.02;217142;1260;139162;-73
2023/09/11 08:18:29;;;;;;;10.20;9.20;;;;;;;28.27;62.06;99779.29;217265;1264;139214;-73
2023/09/11 08:23:33;;;;;;;12.00;9.70;;;;;;;28.38;61.90;99777.84;217900;1260;138728;-73
2023/09/11 08:28:37;;;;;;;11.00;9.20;;;;;;;28.58;61.47;99779.52;217193;1263;139535;-74
2023/09/11 08:33:41;;;;;;;11.10;8.50;;;;;;;28.77;61.17;99777.56;216946;1260;139274;-75
2023/09/11 08:38:58;;;;;;;11.30;9.10;;;;;;;28.87;59.74;99781.61;217006;1259;138770;-74
2023/09/11 08:44:01;;;;;;;9.40;8.00;;;;;;;29.02;59.01;99776.77;218127;1259;138875;-73
2023/09/11 08:49:10;;;;;;;8.90;7.30;;;;;;;29.18;58.01;99780.58;217547;1259;141446;-74
2023/09/11 08:54:16;;;;;;;8.60;6.00;;;;;;;29.26;57.15;99779.66;217122;1260;138312;-75
2023/09/11 08:59:23;;;;;;;8.40;7.40;;;;;;;29.35;55.84;99778.30;217949;1259;139903;-75
2023/09/11 09:04:27;;;;;;;66.20;11.60;;;;;;;29.58;55.64;99778.27;218282;1259;138473;-75
2023/09/11 09:09:33;;;;;;;9.30;7.10;;;;;;;29.78;54.79;99781.73;216950;1259;139625;-74
2023/09/11 09:14:40;;;;;;;11.80;8.40;;;;;;;29.82;53.59;99781.04;219031;1259;139347;-75
2023/09/11 09:19:43;;;;;;;7.30;6.60;;;;;;;29.78;52.26;99776.80;217991;1259;150894;-75
2023/09/11 09:24:51;;;;;;;7.80;7.10;;;;;;;29.99;52.35;99776.67;217107;1260;139348;-73
2023/09/11 09:29:55;;;;;;;7.60;6.90;;;;;;;30.24;51.08;99773.86;219312;1260;139753;-76
2023/09/11 09:34:58;;;;;;;7.20;6.20;;;;;;;30.33;50.59;99769.20;217210;1263;138528;-75
2023/09/11 09:40:04;;;;;;;8.00;7.30;;;;;;;30.39;50.09;99768.84;218157;1263;138553;-75
2023/09/11 09:45:26;;;;;;;7.90;6.80;;;;;;;30.53;49.77;99764.54;217307;1259;140083;-75
2023/09/11 09:50:45;;;;;;;6.80;6.20;;;;;;;30.66;49.15;99756.12;217068;1263;139850;-75
2023/09/11 09:55:49;;;;;;;6.60;6.00;;;;;;;30.52;47.95;99752.65;217370;1259;140575;-76
2023/09/11 10:01:13;;;;;;;6.60;5.70;;;;;;;30.55;47.55;99745.46;217339;1260;138446;-74
2023/09/11 10:06:19;;;;;;;8.70;6.90;;;;;;;30.72;47.43;99739.87;217322;1259;140191;-74
2023/09/11 10:11:27;;;;;;;27.80;9.00;;;;;;;30.97;47.00;99738.57;217078;1260;140151;-73
2023/09/11 10:16:35;;;;;;;6.60;6.00;;;;;;;31.15;46.67;99732.73;216915;1260;139608;-74
2023/09/11 10:21:39;;;;;;;7.60;7.00;;;;;;;31.26;46.63;99727.76;217040;1260;139317;-74
2023/09/11 10:26:59;;;;;;;9.50;6.20;;;;;;;31.37;46.31;99721.84;218104;1256;139702;-74
2023/09/11 10:32:07;;;;;;;6.10;5.60;;;;;;;31.48;45.48;99718.44;218070;1256;139309;-76
2023/09/11 10:37:10;;;;;;;7.60;6.60;;;;;;;31.57;44.59;99708.92;218459;1256;139682;-75
2023/09/11 10:42:13;;;;;;;7.60;7.00;;;;;;;31.54;44.51;99704.50;217437;1256;140767;-79
2023/09/11 10:47:20;;;;;;;9.70;6.70;;;;;;;31.29;44.24;99698.84;217758;1256;139345;-74
2023/09/11 10:52:28;;;;;;;11.50;7.00;;;;;;;30.99;44.59;99699.05;217868;1260;138907;-76
2023/09/11 10:57:32;;;;;;;7.50;6.70;;;;;;;30.68;44.57;99700.48;218460;1256;138835;-75
2023/09/11 11:02:36;;;;;;;7.30;6.60;;;;;;;30.40;44.09;99696.50;217690;1257;139001;-76
2023/09/11 11:07:41;;;;;;;6.90;6.30;;;;;;;30.30;44.38;99694.44;217701;1260;140119;-76
2023/09/11 11:12:46;;;;;;;6.60;6.00;;;;;;;30.48;44.44;99692.86;218533;1256;139571;-74
2023/09/11 11:18:27;;;;;;;6.60;6.10;;;;;;;30.57;44.24;99689.79;217752;1259;139693;-77
2023/09/11 11:23:32;;;;;;;7.50;6.80;;;;;;;30.70;44.04;99684.25;217527;1260;139474;-78
2023/09/11 11:28:46;;;;;;;7.50;6.80;;;;;;;30.71;43.95;99683.08;218470;1256;138803;-80
2023/09/11 11:33:51;;;;;;;7.90;7.10;;;;;;;30.71;43.19;99682.38;217623;1256;138957;-77
2023/09/11 11:38:55;;;;;;;6.00;5.60;;;;;;;30.70;43.44;99673.25;217356;1256;139190;-75
2023/09/11 11:43:58;;;;;;;8.70;6.30;;;;;;;30.76;43.47;99670.90;217277;1260;140685;-77
2023/09/11 11:49:00;;;;;;;17.00;7.60;;;;;;;30.95;42.73;99668.95;217351;1259;139912;-76
2023/09/11 11:54:04;;;;;;;6.70;6.20;;;;;;;31.08;42.86;99668.27;217401;1257;138702;-76
2023/09/11 11:59:08;;;;;;;7.40;6.70;;;;;;;31.28;42.79;99663.27;217412;1256;139241;-75
2023/09/11 12:04:12;;;;;;;8.20;7.20;;;;;;;31.38;42.24;99662.98;217363;1260;139406;-75
2023/09/11 12:09:19;;;;;;;9.00;6.50;;;;;;;31.44;41.83;99662.29;217875;1256;139285;-74
2023/09/11 12:14:22;;;;;;;7.30;6.70;;;;;;;31.48;41.36;99660.75;217256;1256;138954;-73
2023/09/11 12:19:24;;;;;;;8.10;6.20;;;;;;;31.27;41.44;99658.23;217916;1256;139566;-74
2023/09/11 12:24:28;;;;;;;11.60;7.00;;;;;;;30.78;41.36;99654.81;217589;1257;138545;-75
2023/09/11 12:29:32;;;;;;;7.40;6.10;;;;;;;30.68;41.74;99653.95;217552;1257;141009;-74
2023/09/11 12:34:45;;;;;;;6.00;5.40;;;;;;;30.65;42.00;99648.41;217538;1260;139627;-76
2023/09/11 12:39:48;;;;;;;7.10;6.50;;;;;;;30.66;41.82;99651.16;218216;1256;140178;-76
2023/09/11 12:44:51;;;;;;;10.90;7.80;;;;;;;30.68;41.80;99647.66;217385;1256;138839;-80
2023/09/11 12:49:55;;;;;;;7.40;6.70;;;;;;;30.69;41.59;99643.02;217578;1256;139978;-77
2023/09/11 12:54:59;;;;;;;7.40;6.70;;;;;;;30.62;41.39;99640.33;218523;1260;139075;-76
2023/09/11 13:00:06;;;;;;;81.10;12.70;;;;;;;30.65;41.22;99637.31;219438;1259;139499;-77
2023/09/11 13:05:10;;;;;;;9.50;7.10;;;;;;;30.63;41.03;99633.13;217721;1256;139752;-76
2023/09/11 13:10:14;;;;;;;8.20;7.40;;;;;;;30.67;41.31;99628.94;217500;1260;140374;-78
2023/09/11 13:15:18;;;;;;;8.30;7.30;;;;;;;30.73;41.01;99626.91;217911;1257;139658;-80
2023/09/11 13:20:21;;;;;;;8.50;7.60;;;;;;;30.75;40.39;99623.70;219472;1257;139021;-75
2023/09/11 13:25:24;;;;;;;9.00;6.50;;;;;;;30.71;40.44;99622.09;217505;1257;140606;-79
2023/09/11 13:30:27;;;;;;;7.40;6.80;;;;;;;30.57;40.34;99622.89;217687;1260;140065;-83
2023/09/11 13:35:29;;;;;;;7.50;6.80;;;;;;;30.45;40.57;99623.10;217589;1260;138674;-78
2023/09/11 13:40:33;;;;;;;12.50;7.20;;;;;;;30.41;40.35;99621.54;217612;1256;139258;-79
2023/09/11 13:45:36;;;;;;;9.70;7.10;;;;;;;30.38;40.30;99616.79;217692;1259;139461;-75
2023/09/11 13:50:39;;;;;;;8.20;7.50;;;;;;;30.37;40.57;99619.20;217778;1257;138468;-74
2023/09/11 13:55:43;;;;;;;8.00;7.30;;;;;;;30.30;40.17;99611.79;217933;1256;138588;-81
2023/09/11 14:00:45;;;;;;;11.20;7.90;;;;;;;30.31;40.28;99604.10;217669;1256;139708;-78
2023/09/11 14:05:48;;;;;;;14.70;7.50;;;;;;;30.36;40.53;99603.48;217836;1259;139211;-81
2023/09/11 14:10:54;;;;;;;8.50;7.80;;;;;;;30.25;40.43;99597.58;217524;1256;140130;-82
2023/09/11 14:15:57;;;;;;;11.00;8.00;;;;;;;30.05;40.28;99597.73;217837;1257;138577;-79
2023/09/11 14:21:00;;;;;;;7.70;7.10;;;;;;;30.02;39.94;99595.79;217779;1260;138972;-80
2023/09/11 14:26:03;;;;;;;9.20;7.60;;;;;;;29.96;40.19;99599.30;217820;1259;138626;-78
2023/09/11 14:31:07;;;;;;;8.20;7.40;;;;;;;29.80;40.49;99596.43;218492;1256;138882;-80
2023/09/11 14:36:10;;;;;;;14.50;7.90;;;;;;;29.68;40.83;99590.17;217495;1260;139114;-79
2023/09/11 14:41:14;;;;;;;9.90;8.10;;;;;;;29.55;40.89;99584.54;217547;1256;139199;-79
2023/09/11 14:46:19;;;;;;;;;;;;;;;29.42;41.32;99581.38;218855;1257;139081;-79
2023/09/11 14:51:22;;;;;;;10.60;8.20;;;;;;;29.26;42.05;99582.64;217969;1260;125351;-76
2023/09/11 14:56:25;;;;;;;8.60;7.70;;;;;;;29.11;42.32;99581.16;218387;1260;139766;-80
2023/09/11 15:01:28;;;;;;;18.50;8.70;;;;;;;28.96;42.46;99574.44;218463;1257;138929;-79
2023/09/11 15:06:31;;;;;;;9.30;8.30;;;;;;;28.78;43.68;99575.55;217875;1259;139548;-80
2023/09/11 15:11:34;;;;;;;15.20;8.10;;;;;;;28.56;44.42;99571.63;217461;1256;138480;-82
2023/09/11 15:16:39;;;;;;;10.00;7.40;;;;;;;28.38;45.21;99567.92;217495;1256;140394;-74
2023/09/11 15:21:41;;;;;;;10.60;7.60;;;;;;;28.25;46.03;99571.30;217558;1256;139509;-74
2023/09/11 15:26:45;;;;;;;10.80;7.90;;;;;;;28.18;46.94;99572.74;217551;1256;138435;-82
2023/09/11 15:31:48;;;;;;;52.70;10.10;;;;;;;28.10;48.10;99570.55;217930;1259;139354;-79
2023/09/11 15:37:18;;;;;;;9.00;8.10;;;;;;;28.00;48.71;99573.42;217583;1256;141026;-80
2023/09/11 15:42:52;;;;;;;12.00;9.20;;;;;;;27.85;49.29;99572.67;217773;1260;139499;-82
2023/09/11 15:47:57;;;;;;;16.00;8.10;;;;;;;27.65;49.09;99569.59;217364;1256;138627;-84
2023/09/11 15:53:01;;;;;;;18.70;7.90;;;;;;;27.47;49.96;99565.81;217456;1257;138824;-71
2023/09/11 15:58:03;;;;;;;10.00;9.20;;;;;;;27.28;50.59;99558.12;217522;1260;139797;-72
2023/09/11 16:03:06;;;;;;;9.70;8.70;;;;;;;27.09;51.57;99556.73;217723;1256;140314;-75
2023/09/11 16:08:11;;;;;;;11.20;10.00;;;;;;;26.88;52.51;99558.70;217856;1262;140127;-76
2023/09/11 16:13:18;;;;;;;23.10;10.10;;;;;;;26.67;53.48;99558.02;218509;1258;140063;-77
2023/09/11 16:18:22;;;;;;;33.30;10.80;;;;;;;26.44;54.37;99555.06;217868;1257;140376;-80
2023/09/11 16:23:25;;;;;;;10.20;9.30;;;;;;;26.21;54.45;99551.05;217990;1261;140358;-79
2023/09/11 16:28:30;;;;;;;10.90;9.80;;;;;;;25.97;54.51;99556.70;217805;1261;139772;-79
2023/09/11 16:33:33;;;;;;;24.80;9.40;;;;;;;25.73;54.92;99553.88;218329;1259;140603;-76
2023/09/11 16:38:40;;;;;;;10.00;8.40;;;;;;;25.47;55.26;99552.13;217540;1257;140568;-75
2023/09/11 16:43:45;;;;;;;10.20;9.30;;;;;;;25.19;55.58;99552.80;217994;1257;139330;-71
2023/09/11 16:48:48;;;;;;;21.30;9.20;;;;;;;24.93;55.99;99555.05;219487;1261;139644;-71
2023/09/11 16:53:52;;;;;;;10.90;9.50;;;;;;;24.65;56.69;99552.90;218115;1256;140706;-79
2023/09/11 16:58:56;;;;;;;12.50;10.30;;;;;;;24.31;57.22;99547.64;218153;1259;140526;-75
2023/09/11 17:03:59;;;;;;;10.00;9.00;;;;;;;23.99;57.72;99548.90;217788;1261;139368;-73
2023/09/11 17:09:03;;;;;;;10.60;8.90;;;;;;;23.72;58.22;99547.36;218236;1259;138999;-71
2023/09/11 17:14:06;;;;;;;10.10;9.10;;;;;;;23.45;58.89;99550.63;217941;1257;139620;-76
2023/09/11 17:19:09;;;;;;;18.90;10.30;;;;;;;23.13;59.16;99550.48;217769;1259;141521;-73
2023/09/11 17:24:14;;;;;;;10.10;9.10;;;;;;;22.79;59.65;99549.77;217795;1256;141887;-83
2023/09/11 17:29:19;;;;;;;13.30;10.50;;;;;;;22.57;60.54;99547.80;218125;1257;139498;-79
2023/09/11 17:34:23;;;;;;;15.80;9.30;;;;;;;22.31;60.98;99553.42;217860;1256;140517;-80
2023/09/11 17:39:27;;;;;;;11.40;9.40;;;;;;;22.04;61.61;99559.00;217657;1257;139967;-79
2023/09/11 17:44:30;;;;;;;13.30;11.20;;;;;;;21.74;61.87;99556.95;217616;1262;139241;-82
2023/09/11 17:49:34;;;;;;;17.60;13.30;;;;;;;21.44;62.36;99558.17;217735;1256;139836;-78
2023/09/11 17:54:37;;;;;;;18.30;16.00;;;;;;;21.18;63.05;99559.56;217833;1261;139776;-77
2023/09/11 17:59:40;;;;;;;16.70;15.10;;;;;;;20.97;63.75;99567.83;217593;1256;140698;-78
2023/09/11 18:04:44;;;;;;;18.90;14.10;;;;;;;20.79;64.20;99572.67;217554;1257;141017;-73
2023/09/11 18:09:46;;;;;;;22.00;11.30;;;;;;;20.61;64.71;99569.95;217597;1256;139897;-74
2023/09/11 18:14:48;;;;;;;16.00;11.80;;;;;;;20.39;65.19;99566.95;217461;1262;140940;-77
2023/09/11 18:19:51;;;;;;;20.30;13.00;;;;;;;20.22;65.84;99562.86;217613;1260;141134;-76
2023/09/11 18:24:53;;;;;;;30.40;12.40;;;;;;;20.10;66.27;99564.79;217597;1257;140033;-80
2023/09/11 18:29:56;;;;;;;24.10;11.80;;;;;;;20.02;66.36;99564.17;217519;1257;140381;-79
2023/09/11 18:34:58;;;;;;;27.30;12.40;;;;;;;19.84;66.43;99563.36;217862;1256;140899;-73
2023/09/11 18:40:00;;;;;;;13.90;12.30;;;;;;;19.70;67.11;99571.23;217414;1257;139856;-80
2023/09/11 18:45:02;;;;;;;17.80;10.50;;;;;;;19.60;67.30;99572.34;218433;1256;141026;-84
2023/09/11 18:50:06;;;;;;;16.00;10.10;;;;;;;19.45;67.62;99574.91;217995;1261;139733;-76
2023/09/11 18:55:09;;;;;;;20.00;12.50;;;;;;;19.26;67.93;99575.39;218745;1257;140570;-76
2023/09/11 19:00:12;;;;;;;20.80;11.10;;;;;;;19.04;68.24;99574.71;219299;1260;140383;-74
2023/09/11 19:05:17;;;;;;;22.40;12.40;;;;;;;18.89;68.86;99575.38;217280;1257;140057;-78
2023/09/11 19:10:20;;;;;;;20.10;12.40;;;;;;;18.85;69.23;99575.17;217658;1257;140631;-76
2023/09/11 19:15:22;;;;;;;28.80;11.70;;;;;;;18.78;69.49;99575.48;217432;1261;163787;-76
2023/09/11 19:20:26;;;;;;;17.60;11.10;;;;;;;18.68;69.70;99569.73;217838;1260;140768;-77
2023/09/11 19:25:31;;;;;;;14.80;10.30;;;;;;;18.58;69.81;99570.58;218270;1257;140753;-77
2023/09/11 19:30:36;;;;;;;21.60;12.20;;;;;;;18.52;70.20;99570.20;217405;1261;141144;-82
2023/09/11 19:35:39;;;;;;;16.30;11.40;;;;;;;18.45;70.33;99569.86;217335;1261;622839;-78
2023/09/11 19:40:44;;;;;;;18.10;11.30;;;;;;;18.39;70.72;99571.39;217353;1261;141148;-79
2023/09/11 19:45:49;;;;;;;14.60;10.50;;;;;;;18.27;70.51;99575.23;217645;1257;140871;-75
2023/09/11 19:50:53;;;;;;;16.10;10.80;;;;;;;18.01;70.49;99575.71;217448;1257;140229;-75
2023/09/11 19:55:57;;;;;;;20.00;11.00;;;;;;;17.81;71.07;99575.66;218727;1257;139770;-79
2023/09/11 20:01:01;;;;;;;26.20;11.80;;;;;;;17.71;71.58;99577.86;218545;1260;140044;-79
2023/09/11 20:06:04;;;;;;;17.70;11.20;;;;;;;17.55;71.95;99576.33;217336;1261;141300;-77
2023/09/11 20:11:11;;;;;;;18.90;14.10;;;;;;;17.48;72.46;99571.31;218069;1257;140761;-77
2023/09/11 20:16:14;;;;;;;26.10;13.50;;;;;;;17.49;72.88;99574.92;217914;1261;141161;-76
2023/09/11 20:21:17;;;;;;;27.80;12.30;;;;;;;17.47;73.01;99568.52;218150;1257;140032;-75
2023/09/11 20:26:20;;;;;;;13.60;12.20;;;;;;;17.33;73.05;99564.24;218072;1256;140317;-75
2023/09/11 20:31:24;;;;;;;15.70;12.20;;;;;;;17.21;73.29;99565.73;220070;1256;141352;-77
2023/09/11 20:36:28;;;;;;;24.30;12.30;;;;;;;17.16;73.67;99569.54;220314;1257;140327;-74
2023/09/11 20:41:31;;;;;;;16.40;11.10;;;;;;;17.19;73.98;99570.21;220057;1259;141286;-73
2023/09/11 20:46:33;;;;;;;17.40;11.10;;;;;;;17.20;73.71;99570.11;219136;1257;141180;-77
2023/09/11 20:51:36;;;;;;;14.50;11.90;;;;;;;17.08;73.53;99573.95;217553;1260;143404;-79
2023/09/11 20:56:40;;;;;;;19.70;12.80;;;;;;;17.04;74.01;99574.30;217305;1260;140614;-71
2023/09/11 21:01:44;;;;;;;14.00;12.50;;;;;;;17.01;74.26;99576.73;217796;1258;141663;-72
2023/09/11 21:06:48;;;;;;;19.60;13.60;;;;;;;16.95;74.37;99575.38;218203;1260;140478;-70
2023/09/11 21:11:51;;;;;;;11.20;10.20;;;;;;;16.88;74.42;99573.31;219104;1256;140074;-75
2023/09/11 21:16:54;;;;;;;13.10;11.80;;;;;;;16.75;74.21;99576.70;218109;1262;140860;-77
2023/09/11 21:21:57;;;;;;;15.30;11.80;;;;;;;16.56;74.50;99571.17;217090;1261;140284;-76
2023/09/11 21:27:00;;;;;;;14.90;12.40;;;;;;;16.39;74.89;99570.73;217367;1257;141697;-78
2023/09/11 21:32:03;;;;;;;16.70;14.20;;;;;;;16.27;75.57;99571.42;217460;1263;140039;-76
2023/09/11 21:37:06;;;;;;;16.00;12.60;;;;;;;16.19;76.05;99575.19;217548;1261;140864;-83
2023/09/11 21:42:10;;;;;;;21.10;14.70;;;;;;;16.19;76.56;99578.37;217401;1262;140322;-79
2023/09/11 21:47:13;;;;;;;15.70;13.70;;;;;;;16.14;76.51;99582.09;218125;1258;141246;-75
2023/09/11 21:52:18;;;;;;;15.70;13.10;;;;;;;16.07;76.55;99579.09;217625;1260;140961;-76
2023/09/11 21:57:22;;;;;;;26.90;17.40;;;;;;;16.00;76.70;99575.56;217532;1261;139898;-80
2023/09/11 22:02:26;;;;;;;18.40;14.20;;;;;;;15.97;76.92;99576.80;218184;1262;139996;-78
2023/09/11 22:07:29;;;;;;;20.50;16.70;;;;;;;15.97;77.20;99580.02;217479;1263;142497;-80
2023/09/11 22:12:34;;;;;;;20.90;15.80;;;;;;;16.01;77.62;99575.30;217766;1262;139913;-82
2023/09/11 22:17:37;;;;;;;21.00;16.20;;;;;;;16.00;77.51;99578.52;219367;1256;140974;-82
2023/09/11 22:22:40;;;;;;;19.00;15.90;;;;;;;15.98;77.47;99575.84;219332;1260;140030;-83
2023/09/11 22:27:43;;;;;;;20.70;17.40;;;;;;;15.97;77.49;99578.74;218957;1257;140169;-82
2023/09/11 22:32:45;;;;;;;24.60;17.40;;;;;;;15.96;77.34;99573.53;217538;1261;141910;-82
2023/09/11 22:37:58;;;;;;;19.30;16.40;;;;;;;15.92;77.33;99569.29;217440;1257;141168;-79
2023/09/11 22:43:01;;;;;;;16.60;14.70;;;;;;;15.87;77.40;99565.67;218030;1257;141339;-81
2023/09/11 22:48:05;;;;;;;23.70;15.30;;;;;;;15.75;77.31;99564.20;219010;1257;139854;-81
2023/09/11 22:53:11;;;;;;;17.40;15.40;;;;;;;15.68;77.67;99565.01;217150;1261;140299;-73
2023/09/11 22:58:15;;;;;;;24.60;16.90;;;;;;;15.66;77.76;99564.69;218579;1257;139730;-75
2023/09/11 23:03:45;;;;;;;22.50;15.00;;;;;;;15.63;77.84;99568.13;218043;1260;139814;-76
2023/09/11 23:08:49;;;;;;;18.20;15.00;;;;;;;15.59;77.75;99566.10;217834;1260;140554;-74
2023/09/11 23:13:54;;;;;;;26.10;15.40;;;;;;;15.55;77.78;99566.48;217671;1260;140384;-76
2023/09/11 23:19:00;;;;;;;18.20;15.70;;;;;;;15.50;77.88;99564.22;217653;1260;141519;-74
2023/09/11 23:24:12;;;;;;;19.50;15.30;;;;;;;15.44;77.93;99567.23;218025;1260;140039;-73